sensor_id;sensor_type;location;lat;lon;timestamp;temperature;humidity
13458;DHT22;6801;53.018;11.560;2023-04-29T00:00:41;12.90;71.90
13458;DHT22;6801;53.018;11.560;2023-04-29T00:03:09;12.90;72.10
13458;DHT22;6801;53.018;11.560;2023-04-29T00:05:36;12.90;72.00
13458;DHT22;6801;53.018;11.560;2023-04-29T00:08:03;12.90;72.20
13458;DHT22;6801;53.018;11.560;2023-04-29T00:10:31;13.00;72.60
13458;DHT22;6801;53.018;11.560;2023-04-29T00:12:58;13.00;72.60
13458;DHT22;6801;53.018;11.560;2023-04-29T00:15:25;12.90;73.00
13458;DHT22;6801;53.018;11.560;2023-04-29T00:17:52;12.90;73.20
13458;DHT22;6801;53.018;11.560;2023-04-29T00:20:20;12.90;73.10
13458;DHT22;6801;53.018;11.560;2023-04-29T00:22:47;12.80;72.90
13458;DHT22;6801;53.018;11.560;2023-04-29T00:25:14;12.80;73.10
13458;DHT22;6801;53.018;11.560;2023-04-29T00:27:43;12.80;73.20
13458;DHT22;6801;53.018;11.560;2023-04-29T00:30:10;12.80;73.30
13458;DHT22;6801;53.018;11.560;2023-04-29T00:32:37;12.80;73.10
13458;DHT22;6801;53.018;11.560;2023-04-29T00:35:05;12.80;73.10
13458;DHT22;6801;53.018;11.560;2023-04-29T00:37:32;12.80;73.00
13458;DHT22;6801;53.018;11.560;2023-04-29T00:39:59;12.80;73.00
13458;DHT22;6801;53.018;11.560;2023-04-29T00:42:27;12.70;72.80
13458;DHT22;6801;53.018;11.560;2023-04-29T00:44:56;12.70;73.30
13458;DHT22;6801;53.018;11.560;2023-04-29T00:47:24;12.80;73.80
13458;DHT22;6801;53.018;11.560;2023-04-29T00:49:51;12.70;74.00
13458;DHT22;6801;53.018;11.560;2023-04-29T00:52:18;12.70;74.10
13458;DHT22;6801;53.018;11.560;2023-04-29T00:54:45;12.70;74.10
13458;DHT22;6801;53.018;11.560;2023-04-29T00:57:14;12.70;73.90
13458;DHT22;6801;53.018;11.560;2023-04-29T00:59:41;12.60;73.60
13458;DHT22;6801;53.018;11.560;2023-04-29T01:02:12;12.70;73.30
13458;DHT22;6801;53.018;11.560;2023-04-29T01:04:39;12.70;73.60
13458;DHT22;6801;53.018;11.560;2023-04-29T01:07:11;12.60;73.70
13458;DHT22;6801;53.018;11.560;2023-04-29T01:09:52;12.60;73.50
13458;DHT22;6801;53.018;11.560;2023-04-29T01:12:28;12.60;73.50
13458;DHT22;6801;53.018;11.560;2023-04-29T01:15:03;12.60;73.60
13458;DHT22;6801;53.018;11.560;2023-04-29T01:17:37;12.60;74.00
13458;DHT22;6801;53.018;11.560;2023-04-29T01:20:08;12.60;74.00
13458;DHT22;6801;53.018;11.560;2023-04-29T01:22:36;12.50;73.60
13458;DHT22;6801;53.018;11.560;2023-04-29T01:25:06;12.50;73.20
13458;DHT22;6801;53.018;11.560;2023-04-29T01:27:51;12.50;73.10
13458;DHT22;6801;53.018;11.560;2023-04-29T01:30:30;12.50;73.20
13458;DHT22;6801;53.018;11.560;2023-04-29T01:33:02;12.50;72.80
13458;DHT22;6801;53.018;11.560;2023-04-29T01:35:49;12.50;72.50
13458;DHT22;6801;53.018;11.560;2023-04-29T01:38:25;12.50;72.60
13458;DHT22;6801;53.018;11.560;2023-04-29T01:41:09;12.50;72.60
13458;DHT22;6801;53.018;11.560;2023-04-29T01:43:36;12.50;72.70
13458;DHT22;6801;53.018;11.560;2023-04-29T01:46:16;12.50;72.60
13458;DHT22;6801;53.018;11.560;2023-04-29T01:48:44;12.50;72.20
13458;DHT22;6801;53.018;11.560;2023-04-29T01:51:12;12.50;73.00
13458;DHT22;6801;53.018;11.560;2023-04-29T01:53:40;12.50;73.00
13458;DHT22;6801;53.018;11.560;2023-04-29T01:56:09;12.50;73.00
13458;DHT22;6801;53.018;11.560;2023-04-29T01:59:05;12.50;72.90
13458;DHT22;6801;53.018;11.560;2023-04-29T02:02:07;12.60;73.40
13458;DHT22;6801;53.018;11.560;2023-04-29T02:04:39;12.60;73.60
13458;DHT22;6801;53.018;11.560;2023-04-29T02:07:07;12.50;73.70
13458;DHT22;6801;53.018;11.560;2023-04-29T02:09:34;12.50;73.20
13458;DHT22;6801;53.018;11.560;2023-04-29T02:12:09;12.50;73.00
13458;DHT22;6801;53.018;11.560;2023-04-29T02:14:36;12.50;72.90
13458;DHT22;6801;53.018;11.560;2023-04-29T02:17:03;12.50;72.80
13458;DHT22;6801;53.018;11.560;2023-04-29T02:19:30;12.50;72.60
13458;DHT22;6801;53.018;11.560;2023-04-29T02:21:57;12.50;72.60
13458;DHT22;6801;53.018;11.560;2023-04-29T02:24:25;12.50;72.60
13458;DHT22;6801;53.018;11.560;2023-04-29T02:26:52;12.50;72.40
13458;DHT22;6801;53.018;11.560;2023-04-29T02:29:20;12.50;72.60
13458;DHT22;6801;53.018;11.560;2023-04-29T02:31:47;12.50;72.50
13458;DHT22;6801;53.018;11.560;2023-04-29T02:34:15;12.40;72.40
13458;DHT22;6801;53.018;11.560;2023-04-29T02:36:42;12.40;72.50
13458;DHT22;6801;53.018;11.560;2023-04-29T02:39:09;12.40;72.80
13458;DHT22;6801;53.018;11.560;2023-04-29T02:41:36;12.40;72.60
13458;DHT22;6801;53.018;11.560;2023-04-29T02:44:03;12.40;72.30
13458;DHT22;6801;53.018;11.560;2023-04-29T02:46:32;12.30;72.00
13458;DHT22;6801;53.018;11.560;2023-04-29T02:49:00;12.30;71.80
13458;DHT22;6801;53.018;11.560;2023-04-29T02:51:28;12.30;71.60
13458;DHT22;6801;53.018;11.560;2023-04-29T02:53:55;12.40;71.70
13458;DHT22;6801;53.018;11.560;2023-04-29T02:56:23;12.40;71.80
13458;DHT22;6801;53.018;11.560;2023-04-29T02:58:50;12.40;71.70
13458;DHT22;6801;53.018;11.560;2023-04-29T03:01:17;12.30;71.50
13458;DHT22;6801;53.018;11.560;2023-04-29T03:03:45;12.30;71.60
13458;DHT22;6801;53.018;11.560;2023-04-29T03:06:14;12.30;71.70
13458;DHT22;6801;53.018;11.560;2023-04-29T03:08:41;12.30;71.40
13458;DHT22;6801;53.018;11.560;2023-04-29T03:11:08;12.20;71.30
13458;DHT22;6801;53.018;11.560;2023-04-29T03:13:35;12.30;71.40
13458;DHT22;6801;53.018;11.560;2023-04-29T03:16:02;12.20;71.30
13458;DHT22;6801;53.018;11.560;2023-04-29T03:18:29;12.20;71.20
13458;DHT22;6801;53.018;11.560;2023-04-29T03:20:58;12.20;71.10
13458;DHT22;6801;53.018;11.560;2023-04-29T03:23:25;12.10;71.00
13458;DHT22;6801;53.018;11.560;2023-04-29T03:25:53;12.10;71.00
13458;DHT22;6801;53.018;11.560;2023-04-29T03:28:21;12.10;70.90
13458;DHT22;6801;53.018;11.560;2023-04-29T03:30:48;12.10;70.90
13458;DHT22;6801;53.018;11.560;2023-04-29T03:33:15;12.10;70.80
13458;DHT22;6801;53.018;11.560;2023-04-29T03:35:43;12.10;70.70
13458;DHT22;6801;53.018;11.560;2023-04-29T03:38:32;12.10;70.70
13458;DHT22;6801;53.018;11.560;2023-04-29T03:40:59;12.10;70.60
13458;DHT22;6801;53.018;11.560;2023-04-29T03:43:26;12.00;70.60
13458;DHT22;6801;53.018;11.560;2023-04-29T03:45:53;12.00;70.60
13458;DHT22;6801;53.018;11.560;2023-04-29T03:48:22;12.00;70.60
13458;DHT22;6801;53.018;11.560;2023-04-29T03:50:50;12.00;70.70
13458;DHT22;6801;53.018;11.560;2023-04-29T03:53:18;12.00;70.70
13458;DHT22;6801;53.018;11.560;2023-04-29T03:55:47;12.00;70.70
13458;DHT22;6801;53.018;11.560;2023-04-29T03:58:15;12.00;70.70
13458;DHT22;6801;53.018;11.560;2023-04-29T04:00:42;12.00;70.70
13458;DHT22;6801;53.018;11.560;2023-04-29T04:03:16;12.00;70.70
13458;DHT22;6801;53.018;11.560;2023-04-29T04:05:43;12.00;70.70
13458;DHT22;6801;53.018;11.560;2023-04-29T04:08:13;12.00;70.70
13458;DHT22;6801;53.018;11.560;2023-04-29T04:10:40;12.00;70.60
13458;DHT22;6801;53.018;11.560;2023-04-29T04:13:20;12.00;70.60
13458;DHT22;6801;53.018;11.560;2023-04-29T04:15:49;12.00;70.60
13458;DHT22;6801;53.018;11.560;2023-04-29T04:18:16;12.00;70.70
13458;DHT22;6801;53.018;11.560;2023-04-29T04:20:44;11.90;70.60
13458;DHT22;6801;53.018;11.560;2023-04-29T04:23:11;11.90;70.70
13458;DHT22;6801;53.018;11.560;2023-04-29T04:25:38;11.90;70.80
13458;DHT22;6801;53.018;11.560;2023-04-29T04:28:29;11.90;70.70
13458;DHT22;6801;53.018;11.560;2023-04-29T04:31:00;11.90;70.70
13458;DHT22;6801;53.018;11.560;2023-04-29T04:33:28;11.80;70.70
13458;DHT22;6801;53.018;11.560;2023-04-29T04:35:55;11.80;70.80
13458;DHT22;6801;53.018;11.560;2023-04-29T04:38:22;11.80;70.90
13458;DHT22;6801;53.018;11.560;2023-04-29T04:40:50;11.80;70.90
13458;DHT22;6801;53.018;11.560;2023-04-29T04:43:35;11.80;70.90
13458;DHT22;6801;53.018;11.560;2023-04-29T04:46:09;11.80;70.90
13458;DHT22;6801;53.018;11.560;2023-04-29T04:48:39;11.80;70.90
13458;DHT22;6801;53.018;11.560;2023-04-29T04:51:09;11.70;70.90
13458;DHT22;6801;53.018;11.560;2023-04-29T04:53:36;11.70;71.00
13458;DHT22;6801;53.018;11.560;2023-04-29T04:56:10;11.70;71.10
13458;DHT22;6801;53.018;11.560;2023-04-29T04:58:38;11.70;71.10
13458;DHT22;6801;53.018;11.560;2023-04-29T05:01:05;11.70;71.20
13458;DHT22;6801;53.018;11.560;2023-04-29T05:03:32;11.70;71.20
13458;DHT22;6801;53.018;11.560;2023-04-29T05:06:00;11.60;71.30
13458;DHT22;6801;53.018;11.560;2023-04-29T05:08:27;11.70;71.40
13458;DHT22;6801;53.018;11.560;2023-04-29T05:10:57;11.70;71.30
13458;DHT22;6801;53.018;11.560;2023-04-29T05:13:24;11.70;71.20
13458;DHT22;6801;53.018;11.560;2023-04-29T05:15:53;11.70;71.20
13458;DHT22;6801;53.018;11.560;2023-04-29T05:18:24;11.70;71.20
13458;DHT22;6801;53.018;11.560;2023-04-29T05:20:51;11.70;71.20
13458;DHT22;6801;53.018;11.560;2023-04-29T05:23:19;11.70;71.20
13458;DHT22;6801;53.018;11.560;2023-04-29T05:25:46;11.70;71.20
13458;DHT22;6801;53.018;11.560;2023-04-29T05:28:15;11.70;71.20
13458;DHT22;6801;53.018;11.560;2023-04-29T05:30:43;11.70;71.20
13458;DHT22;6801;53.018;11.560;2023-04-29T05:33:11;11.70;71.20
13458;DHT22;6801;53.018;11.560;2023-04-29T05:35:38;11.70;71.20
13458;DHT22;6801;53.018;11.560;2023-04-29T05:38:05;11.60;71.30
13458;DHT22;6801;53.018;11.560;2023-04-29T05:41:08;11.70;71.30
13458;DHT22;6801;53.018;11.560;2023-04-29T05:44:04;11.60;71.30
13458;DHT22;6801;53.018;11.560;2023-04-29T05:46:31;11.70;71.30
13458;DHT22;6801;53.018;11.560;2023-04-29T05:48:59;11.70;71.30
13458;DHT22;6801;53.018;11.560;2023-04-29T05:51:26;11.60;71.30
13458;DHT22;6801;53.018;11.560;2023-04-29T05:53:53;11.60;71.30
13458;DHT22;6801;53.018;11.560;2023-04-29T05:56:21;11.60;71.30
13458;DHT22;6801;53.018;11.560;2023-04-29T05:58:48;11.60;71.40
13458;DHT22;6801;53.018;11.560;2023-04-29T06:01:15;11.50;71.50
13458;DHT22;6801;53.018;11.560;2023-04-29T06:03:44;11.50;71.60
13458;DHT22;6801;53.018;11.560;2023-04-29T06:06:34;11.50;71.70
13458;DHT22;6801;53.018;11.560;2023-04-29T06:09:08;11.50;71.70
13458;DHT22;6801;53.018;11.560;2023-04-29T06:11:35;11.50;71.80
13458;DHT22;6801;53.018;11.560;2023-04-29T06:14:02;11.50;71.90
13458;DHT22;6801;53.018;11.560;2023-04-29T06:16:29;11.60;71.90
13458;DHT22;6801;53.018;11.560;2023-04-29T06:18:56;11.60;71.90
13458;DHT22;6801;53.018;11.560;2023-04-29T06:21:23;11.60;71.90
13458;DHT22;6801;53.018;11.560;2023-04-29T06:23:53;11.60;71.90
13458;DHT22;6801;53.018;11.560;2023-04-29T06:26:21;11.60;71.90
13458;DHT22;6801;53.018;11.560;2023-04-29T06:28:48;11.60;71.80
13458;DHT22;6801;53.018;11.560;2023-04-29T06:31:15;11.50;71.80
13458;DHT22;6801;53.018;11.560;2023-04-29T06:33:42;11.50;71.90
13458;DHT22;6801;53.018;11.560;2023-04-29T06:36:09;11.60;72.10
13458;DHT22;6801;53.018;11.560;2023-04-29T06:39:16;11.60;72.00
13458;DHT22;6801;53.018;11.560;2023-04-29T06:41:53;11.60;72.00
13458;DHT22;6801;53.018;11.560;2023-04-29T06:44:43;11.60;72.00
13458;DHT22;6801;53.018;11.560;2023-04-29T06:47:39;11.60;71.90
13458;DHT22;6801;53.018;11.560;2023-04-29T06:50:10;11.60;72.00
13458;DHT22;6801;53.018;11.560;2023-04-29T06:52:37;11.60;72.10
13458;DHT22;6801;53.018;11.560;2023-04-29T06:55:06;11.60;72.10
13458;DHT22;6801;53.018;11.560;2023-04-29T06:57:34;11.70;72.00
13458;DHT22;6801;53.018;11.560;2023-04-29T07:00:01;11.70;72.00
13458;DHT22;6801;53.018;11.560;2023-04-29T07:02:30;11.70;72.10
13458;DHT22;6801;53.018;11.560;2023-04-29T07:04:57;11.70;72.10
13458;DHT22;6801;53.018;11.560;2023-04-29T07:07:24;11.70;72.10
13458;DHT22;6801;53.018;11.560;2023-04-29T07:09:52;11.80;71.90
13458;DHT22;6801;53.018;11.560;2023-04-29T07:12:20;11.80;72.00
13458;DHT22;6801;53.018;11.560;2023-04-29T07:14:52;11.70;72.10
13458;DHT22;6801;53.018;11.560;2023-04-29T07:17:19;11.80;72.10
13458;DHT22;6801;53.018;11.560;2023-04-29T07:19:46;11.80;71.90
13458;DHT22;6801;53.018;11.560;2023-04-29T07:22:13;11.80;71.80
13458;DHT22;6801;53.018;11.560;2023-04-29T07:24:40;11.90;71.80
13458;DHT22;6801;53.018;11.560;2023-04-29T07:27:07;12.00;71.70
13458;DHT22;6801;53.018;11.560;2023-04-29T07:29:36;12.00;71.60
13458;DHT22;6801;53.018;11.560;2023-04-29T07:32:04;12.00;71.70
13458;DHT22;6801;53.018;11.560;2023-04-29T07:34:35;12.00;72.00
13458;DHT22;6801;53.018;11.560;2023-04-29T07:37:02;12.00;71.90
13458;DHT22;6801;53.018;11.560;2023-04-29T07:39:29;12.00;71.80
13458;DHT22;6801;53.018;11.560;2023-04-29T07:41:57;12.00;71.70
13458;DHT22;6801;53.018;11.560;2023-04-29T07:44:24;12.00;71.70
13458;DHT22;6801;53.018;11.560;2023-04-29T07:46:53;12.00;71.80
13458;DHT22;6801;53.018;11.560;2023-04-29T07:49:20;12.10;71.60
13458;DHT22;6801;53.018;11.560;2023-04-29T07:51:47;12.10;71.80
13458;DHT22;6801;53.018;11.560;2023-04-29T07:54:15;12.10;71.90
13458;DHT22;6801;53.018;11.560;2023-04-29T07:56:44;12.10;71.70
13458;DHT22;6801;53.018;11.560;2023-04-29T07:59:11;12.10;71.60
13458;DHT22;6801;53.018;11.560;2023-04-29T08:01:39;12.10;71.70
13458;DHT22;6801;53.018;11.560;2023-04-29T08:04:08;12.20;71.60
13458;DHT22;6801;53.018;11.560;2023-04-29T08:06:45;12.20;71.50
13458;DHT22;6801;53.018;11.560;2023-04-29T08:09:12;12.20;71.20
13458;DHT22;6801;53.018;11.560;2023-04-29T08:11:41;12.30;71.40
13458;DHT22;6801;53.018;11.560;2023-04-29T08:14:11;12.30;71.40
13458;DHT22;6801;53.018;11.560;2023-04-29T08:16:38;12.20;71.50
13458;DHT22;6801;53.018;11.560;2023-04-29T08:19:05;12.30;71.30
13458;DHT22;6801;53.018;11.560;2023-04-29T08:21:34;12.30;71.20
13458;DHT22;6801;53.018;11.560;2023-04-29T08:24:01;12.30;71.20
13458;DHT22;6801;53.018;11.560;2023-04-29T08:26:27;12.30;71.30
13458;DHT22;6801;53.018;11.560;2023-04-29T08:28:55;12.30;71.10
13458;DHT22;6801;53.018;11.560;2023-04-29T08:31:22;12.40;71.20
13458;DHT22;6801;53.018;11.560;2023-04-29T08:33:48;12.40;71.20
13458;DHT22;6801;53.018;11.560;2023-04-29T08:36:15;12.40;71.20
13458;DHT22;6801;53.018;11.560;2023-04-29T08:38:44;12.50;71.20
13458;DHT22;6801;53.018;11.560;2023-04-29T08:41:11;12.50;71.20
13458;DHT22;6801;53.018;11.560;2023-04-29T08:43:40;12.60;71.30
13458;DHT22;6801;53.018;11.560;2023-04-29T08:46:07;12.60;71.10
13458;DHT22;6801;53.018;11.560;2023-04-29T08:48:35;12.70;71.00
13458;DHT22;6801;53.018;11.560;2023-04-29T08:51:04;12.80;71.10
13458;DHT22;6801;53.018;11.560;2023-04-29T08:53:31;12.80;71.10
13458;DHT22;6801;53.018;11.560;2023-04-29T08:56:07;12.90;71.00
13458;DHT22;6801;53.018;11.560;2023-04-29T08:58:35;12.90;71.10
13458;DHT22;6801;53.018;11.560;2023-04-29T09:01:06;13.00;71.30
13458;DHT22;6801;53.018;11.560;2023-04-29T09:03:43;13.10;71.20
13458;DHT22;6801;53.018;11.560;2023-04-29T09:06:13;13.20;71.40
13458;DHT22;6801;53.018;11.560;2023-04-29T09:08:40;13.30;71.40
13458;DHT22;6801;53.018;11.560;2023-04-29T09:11:09;13.40;71.40
13458;DHT22;6801;53.018;11.560;2023-04-29T09:13:37;13.50;71.30
13458;DHT22;6801;53.018;11.560;2023-04-29T09:16:09;13.60;71.60
13458;DHT22;6801;53.018;11.560;2023-04-29T09:18:45;13.70;71.00
13458;DHT22;6801;53.018;11.560;2023-04-29T09:21:17;13.90;70.90
13458;DHT22;6801;53.018;11.560;2023-04-29T09:23:44;13.90;71.00
13458;DHT22;6801;53.018;11.560;2023-04-29T09:26:13;14.00;71.10
13458;DHT22;6801;53.018;11.560;2023-04-29T09:28:40;14.10;71.20
13458;DHT22;6801;53.018;11.560;2023-04-29T09:31:10;14.20;71.00
13458;DHT22;6801;53.018;11.560;2023-04-29T09:33:51;14.30;70.80
13458;DHT22;6801;53.018;11.560;2023-04-29T09:36:35;14.40;70.70
13458;DHT22;6801;53.018;11.560;2023-04-29T09:39:02;14.50;70.60
13458;DHT22;6801;53.018;11.560;2023-04-29T09:41:32;14.60;70.20
13458;DHT22;6801;53.018;11.560;2023-04-29T09:44:02;14.70;69.90
13458;DHT22;6801;53.018;11.560;2023-04-29T09:46:31;14.80;69.70
13458;DHT22;6801;53.018;11.560;2023-04-29T09:48:59;14.90;69.70
13458;DHT22;6801;53.018;11.560;2023-04-29T09:51:26;15.00;69.60
13458;DHT22;6801;53.018;11.560;2023-04-29T09:53:54;15.00;69.00
13458;DHT22;6801;53.018;11.560;2023-04-29T09:56:21;15.20;69.00
13458;DHT22;6801;53.018;11.560;2023-04-29T09:58:50;15.20;68.70
13458;DHT22;6801;53.018;11.560;2023-04-29T10:01:18;15.20;68.60
13458;DHT22;6801;53.018;11.560;2023-04-29T10:03:47;15.40;68.40
13458;DHT22;6801;53.018;11.560;2023-04-29T10:06:16;15.40;68.40
13458;DHT22;6801;53.018;11.560;2023-04-29T10:08:44;15.50;67.90
13458;DHT22;6801;53.018;11.560;2023-04-29T10:11:12;15.50;67.60
13458;DHT22;6801;53.018;11.560;2023-04-29T10:13:41;15.50;67.30
13458;DHT22;6801;53.018;11.560;2023-04-29T10:16:22;15.60;67.30
13458;DHT22;6801;53.018;11.560;2023-04-29T10:18:54;15.70;67.10
13458;DHT22;6801;53.018;11.560;2023-04-29T10:21:27;15.80;67.00
13458;DHT22;6801;53.018;11.560;2023-04-29T10:23:56;15.80;66.40
13458;DHT22;6801;53.018;11.560;2023-04-29T10:26:26;15.80;66.30
13458;DHT22;6801;53.018;11.560;2023-04-29T10:28:54;15.90;66.20
13458;DHT22;6801;53.018;11.560;2023-04-29T10:31:24;15.90;66.10
13458;DHT22;6801;53.018;11.560;2023-04-29T10:33:54;16.00;65.90
13458;DHT22;6801;53.018;11.560;2023-04-29T10:36:23;16.00;65.70
13458;DHT22;6801;53.018;11.560;2023-04-29T10:38:53;16.00;65.60
13458;DHT22;6801;53.018;11.560;2023-04-29T10:41:23;16.00;65.50
13458;DHT22;6801;53.018;11.560;2023-04-29T10:43:53;16.10;65.50
13458;DHT22;6801;53.018;11.560;2023-04-29T10:46:21;16.10;65.30
13458;DHT22;6801;53.018;11.560;2023-04-29T10:48:50;16.20;65.10
13458;DHT22;6801;53.018;11.560;2023-04-29T10:51:28;16.20;65.00
13458;DHT22;6801;53.018;11.560;2023-04-29T10:53:59;16.30;64.90
13458;DHT22;6801;53.018;11.560;2023-04-29T10:56:37;16.40;65.00
13458;DHT22;6801;53.018;11.560;2023-04-29T10:59:04;16.40;64.40
13458;DHT22;6801;53.018;11.560;2023-04-29T11:01:44;16.50;64.40
13458;DHT22;6801;53.018;11.560;2023-04-29T11:04:13;16.50;64.20
13458;DHT22;6801;53.018;11.560;2023-04-29T11:06:42;16.70;64.30
13458;DHT22;6801;53.018;11.560;2023-04-29T11:09:11;16.70;63.80
13458;DHT22;6801;53.018;11.560;2023-04-29T11:12:01;16.80;63.90
13458;DHT22;6801;53.018;11.560;2023-04-29T11:14:33;16.90;63.80
13458;DHT22;6801;53.018;11.560;2023-04-29T11:17:02;16.90;62.20
13458;DHT22;6801;53.018;11.560;2023-04-29T11:19:32;17.00;62.90
13458;DHT22;6801;53.018;11.560;2023-04-29T11:22:13;17.10;62.40
13458;DHT22;6801;53.018;11.560;2023-04-29T11:24:50;17.10;62.30
13458;DHT22;6801;53.018;11.560;2023-04-29T11:27:19;17.20;62.20
13458;DHT22;6801;53.018;11.560;2023-04-29T11:29:49;17.40;61.30
13458;DHT22;6801;53.018;11.560;2023-04-29T11:32:19;17.40;61.50
13458;DHT22;6801;53.018;11.560;2023-04-29T11:34:48;17.50;61.50
13458;DHT22;6801;53.018;11.560;2023-04-29T11:37:20;17.50;61.40
13458;DHT22;6801;53.018;11.560;2023-04-29T11:39:47;17.60;61.40
13458;DHT22;6801;53.018;11.560;2023-04-29T11:42:19;17.70;61.10
13458;DHT22;6801;53.018;11.560;2023-04-29T11:44:46;17.80;60.80
13458;DHT22;6801;53.018;11.560;2023-04-29T11:47:16;17.90;60.00
13458;DHT22;6801;53.018;11.560;2023-04-29T11:49:43;18.00;59.80
13458;DHT22;6801;53.018;11.560;2023-04-29T11:52:12;18.00;59.30
13458;DHT22;6801;53.018;11.560;2023-04-29T11:54:40;18.00;59.60
13458;DHT22;6801;53.018;11.560;2023-04-29T11:57:09;18.20;59.50
13458;DHT22;6801;53.018;11.560;2023-04-29T11:59:36;18.30;58.90
13458;DHT22;6801;53.018;11.560;2023-04-29T12:02:04;18.40;58.40
13458;DHT22;6801;53.018;11.560;2023-04-29T12:04:32;18.40;58.30
13458;DHT22;6801;53.018;11.560;2023-04-29T12:06:58;18.50;58.40
13458;DHT22;6801;53.018;11.560;2023-04-29T12:09:27;18.50;58.30
13458;DHT22;6801;53.018;11.560;2023-04-29T12:11:54;18.60;58.10
13458;DHT22;6801;53.018;11.560;2023-04-29T12:14:21;18.70;58.00
13458;DHT22;6801;53.018;11.560;2023-04-29T12:16:48;18.70;57.70
13458;DHT22;6801;53.018;11.560;2023-04-29T12:19:15;18.80;57.30
13458;DHT22;6801;53.018;11.560;2023-04-29T12:21:48;18.80;55.20
13458;DHT22;6801;53.018;11.560;2023-04-29T12:24:16;18.80;56.60
13458;DHT22;6801;53.018;11.560;2023-04-29T12:26:48;18.90;56.70
13458;DHT22;6801;53.018;11.560;2023-04-29T12:29:15;18.90;56.00
13458;DHT22;6801;53.018;11.560;2023-04-29T12:31:45;19.00;56.20
13458;DHT22;6801;53.018;11.560;2023-04-29T12:34:13;19.00;56.50
13458;DHT22;6801;53.018;11.560;2023-04-29T12:36:41;19.10;55.60
13458;DHT22;6801;53.018;11.560;2023-04-29T12:39:10;19.20;54.70
13458;DHT22;6801;53.018;11.560;2023-04-29T12:41:38;19.30;54.70
13458;DHT22;6801;53.018;11.560;2023-04-29T12:44:07;19.30;53.20
13458;DHT22;6801;53.018;11.560;2023-04-29T12:46:35;19.40;52.30
13458;DHT22;6801;53.018;11.560;2023-04-29T12:49:03;19.50;52.80
13458;DHT22;6801;53.018;11.560;2023-04-29T12:51:31;19.50;51.60
13458;DHT22;6801;53.018;11.560;2023-04-29T12:53:59;19.50;52.10
13458;DHT22;6801;53.018;11.560;2023-04-29T12:56:28;19.50;52.40
13458;DHT22;6801;53.018;11.560;2023-04-29T12:58:56;19.60;52.20
13458;DHT22;6801;53.018;11.560;2023-04-29T13:01:24;19.60;51.70
13458;DHT22;6801;53.018;11.560;2023-04-29T13:03:51;19.70;52.20
13458;DHT22;6801;53.018;11.560;2023-04-29T13:06:18;19.80;51.70
13458;DHT22;6801;53.018;11.560;2023-04-29T13:08:45;19.90;51.60
13458;DHT22;6801;53.018;11.560;2023-04-29T13:11:12;20.00;50.00
13458;DHT22;6801;53.018;11.560;2023-04-29T13:13:38;20.00;51.20
13458;DHT22;6801;53.018;11.560;2023-04-29T13:16:06;20.10;50.20
13458;DHT22;6801;53.018;11.560;2023-04-29T13:18:35;20.10;49.70
13458;DHT22;6801;53.018;11.560;2023-04-29T13:21:02;20.10;49.80
13458;DHT22;6801;53.018;11.560;2023-04-29T13:23:29;20.10;49.40
13458;DHT22;6801;53.018;11.560;2023-04-29T13:25:56;20.10;49.80
13458;DHT22;6801;53.018;11.560;2023-04-29T13:28:23;20.20;49.80
13458;DHT22;6801;53.018;11.560;2023-04-29T13:30:50;20.20;49.70
13458;DHT22;6801;53.018;11.560;2023-04-29T13:33:17;20.20;49.40
13458;DHT22;6801;53.018;11.560;2023-04-29T13:35:47;20.20;49.40
13458;DHT22;6801;53.018;11.560;2023-04-29T13:38:14;20.30;48.90
13458;DHT22;6801;53.018;11.560;2023-04-29T13:40:42;20.20;48.70
13458;DHT22;6801;53.018;11.560;2023-04-29T13:43:09;20.20;48.70
13458;DHT22;6801;53.018;11.560;2023-04-29T13:45:36;20.20;49.10
13458;DHT22;6801;53.018;11.560;2023-04-29T13:48:03;20.20;48.80
13458;DHT22;6801;53.018;11.560;2023-04-29T13:50:30;20.10;48.10
13458;DHT22;6801;53.018;11.560;2023-04-29T13:52:58;20.10;48.70
13458;DHT22;6801;53.018;11.560;2023-04-29T13:55:26;20.10;48.20
13458;DHT22;6801;53.018;11.560;2023-04-29T13:57:53;20.10;48.90
13458;DHT22;6801;53.018;11.560;2023-04-29T14:00:20;20.10;49.10
13458;DHT22;6801;53.018;11.560;2023-04-29T14:02:47;20.10;49.20
13458;DHT22;6801;53.018;11.560;2023-04-29T14:05:14;20.10;48.10
13458;DHT22;6801;53.018;11.560;2023-04-29T14:07:41;20.20;48.70
13458;DHT22;6801;53.018;11.560;2023-04-29T14:10:09;20.20;48.90
13458;DHT22;6801;53.018;11.560;2023-04-29T14:12:36;20.20;48.80
13458;DHT22;6801;53.018;11.560;2023-04-29T14:15:04;20.30;48.70
13458;DHT22;6801;53.018;11.560;2023-04-29T14:17:31;20.20;48.50
13458;DHT22;6801;53.018;11.560;2023-04-29T14:19:58;20.20;48.80
13458;DHT22;6801;53.018;11.560;2023-04-29T14:22:25;20.10;48.80
13458;DHT22;6801;53.018;11.560;2023-04-29T14:24:53;20.10;48.60
13458;DHT22;6801;53.018;11.560;2023-04-29T14:27:21;20.10;48.40
13458;DHT22;6801;53.018;11.560;2023-04-29T14:29:48;20.00;48.50
13458;DHT22;6801;53.018;11.560;2023-04-29T14:32:15;20.00;47.60
13458;DHT22;6801;53.018;11.560;2023-04-29T14:34:43;19.90;47.50
13458;DHT22;6801;53.018;11.560;2023-04-29T14:37:10;19.80;47.50
13458;DHT22;6801;53.018;11.560;2023-04-29T14:39:37;19.70;47.50
13458;DHT22;6801;53.018;11.560;2023-04-29T14:42:03;19.60;47.90
13458;DHT22;6801;53.018;11.560;2023-04-29T14:44:32;19.50;47.50
13458;DHT22;6801;53.018;11.560;2023-04-29T14:46:59;19.40;47.80
13458;DHT22;6801;53.018;11.560;2023-04-29T14:49:26;19.40;48.20
13458;DHT22;6801;53.018;11.560;2023-04-29T14:51:53;19.30;48.70
13458;DHT22;6801;53.018;11.560;2023-04-29T14:54:20;19.20;49.00
13458;DHT22;6801;53.018;11.560;2023-04-29T14:56:47;19.30;48.60
13458;DHT22;6801;53.018;11.560;2023-04-29T14:59:14;19.20;48.70
13458;DHT22;6801;53.018;11.560;2023-04-29T15:01:42;19.10;48.80
13458;DHT22;6801;53.018;11.560;2023-04-29T15:04:10;19.00;48.90
13458;DHT22;6801;53.018;11.560;2023-04-29T15:06:37;19.00;48.90
13458;DHT22;6801;53.018;11.560;2023-04-29T15:09:05;19.00;49.30
13458;DHT22;6801;53.018;11.560;2023-04-29T15:11:32;18.90;48.80
13458;DHT22;6801;53.018;11.560;2023-04-29T15:13:59;18.80;49.00
13458;DHT22;6801;53.018;11.560;2023-04-29T15:16:26;18.80;49.70
13458;DHT22;6801;53.018;11.560;2023-04-29T15:18:55;18.80;49.40
13458;DHT22;6801;53.018;11.560;2023-04-29T15:21:22;18.80;49.30
13458;DHT22;6801;53.018;11.560;2023-04-29T15:23:49;18.70;49.80
13458;DHT22;6801;53.018;11.560;2023-04-29T15:26:16;18.70;49.60
13458;DHT22;6801;53.018;11.560;2023-04-29T15:28:43;18.70;49.60
13458;DHT22;6801;53.018;11.560;2023-04-29T15:31:10;18.60;50.00
13458;DHT22;6801;53.018;11.560;2023-04-29T15:33:37;18.60;50.10
13458;DHT22;6801;53.018;11.560;2023-04-29T15:36:06;18.60;50.40
13458;DHT22;6801;53.018;11.560;2023-04-29T15:38:33;18.60;50.60
13458;DHT22;6801;53.018;11.560;2023-04-29T15:41:00;18.60;50.30
13458;DHT22;6801;53.018;11.560;2023-04-29T15:43:28;18.60;49.90